Time;durP1;ratioP1;P1;durP2;ratioP2;P2;SDS_P1;SDS_P2;PMS_P1;PMS_P2;Temp;Humidity;BMP_temperature;BMP_pressure;BME280_temperature;BME280_humidity;BME280_pressure;Samples;Min_cycle;Max_cycle;Signal;HPM_P1;HPM_P2
2022/03/18 00:00:24;;;;;;;;;;;19.40;99.90;;;;;;5042875;28;19960;-62
2022/03/18 00:02:55;;;;;;;;;;;19.40;99.90;;;;;;5044483;28;19964;-62
2022/03/18 00:05:23;;;;;;;;;;;19.40;99.90;;;;;;5050793;28;19928;-63
2022/03/18 00:07:51;;;;;;;;;;;19.40;99.90;;;;;;5053314;28;20506;-63
2022/03/18 00:10:18;;;;;;;;;;;19.40;99.90;;;;;;5049473;28;20426;-64
2022/03/18 00:12:46;;;;;;;;;;;19.40;99.90;;;;;;5040064;28;19933;-64
2022/03/18 00:15:14;;;;;;;;;;;19.30;99.90;;;;;;5047468;28;19928;-62
2022/03/18 00:17:41;;;;;;;;;;;19.30;99.90;;;;;;5047518;28;19928;-65
2022/03/18 00:20:09;;;;;;;;;;;19.30;99.90;;;;;;5042180;28;20032;-63
2022/03/18 00:22:37;;;;;;;;;;;19.30;99.90;;;;;;5048339;28;19925;-64
2022/03/18 00:25:06;;;;;;;;;;;19.30;99.90;;;;;;5046881;28;19924;-65
2022/03/18 00:27:35;;;;;;;;;;;19.30;99.90;;;;;;5042813;28;19929;-63
2022/03/18 00:30:03;;;;;;;;;;;19.30;99.90;;;;;;5041540;28;19933;-62
2022/03/18 00:32:30;;;;;;;;;;;19.30;99.90;;;;;;5041430;28;19935;-63
2022/03/18 00:34:58;;;;;;;;;;;19.30;99.90;;;;;;5041723;28;19929;-63
2022/03/18 00:37:25;;;;;;;;;;;19.30;99.90;;;;;;5038947;28;20323;-64
2022/03/18 00:39:52;;;;;;;;;;;19.30;99.90;;;;;;5045631;28;20408;-65
2022/03/18 00:42:20;;;;;;;;;;;19.30;99.90;;;;;;5044548;28;19929;-64
2022/03/18 00:44:47;;;;;;;;;;;19.30;99.90;;;;;;5046997;28;19935;-63
2022/03/18 00:52:45;;;;;;;;;;;19.20;99.90;;;;;;5044632;28;20420;-63
2022/03/18 00:55:12;;;;;;;;;;;19.20;99.90;;;;;;5046310;28;19929;-64
2022/03/18 00:57:40;;;;;;;;;;;19.20;99.90;;;;;;5044856;28;19929;-64
2022/03/18 01:00:07;;;;;;;;;;;19.20;99.90;;;;;;5044625;28;20293;-63
2022/03/18 01:02:34;;;;;;;;;;;19.20;99.90;;;;;;5041873;28;19925;-64
2022/03/18 01:05:02;;;;;;;;;;;19.20;99.90;;;;;;5044174;28;19929;-64
2022/03/18 01:07:29;;;;;;;;;;;19.20;99.90;;;;;;5042367;28;19936;-64
2022/03/18 01:09:57;;;;;;;;;;;19.20;99.90;;;;;;5043525;28;19928;-64
2022/03/18 01:12:25;;;;;;;;;;;19.20;99.90;;;;;;5041979;28;19929;-63
2022/03/18 01:14:52;;;;;;;;;;;19.20;99.90;;;;;;5038868;28;19933;-63
2022/03/18 01:17:19;;;;;;;;;;;19.20;99.90;;;;;;5045017;28;19932;-64
2022/03/18 01:19:47;;;;;;;;;;;19.20;99.90;;;;;;5045698;28;19929;-62
2022/03/18 01:22:14;;;;;;;;;;;19.20;99.90;;;;;;5054066;28;19929;-61
2022/03/18 01:24:41;;;;;;;;;;;19.20;99.90;;;;;;5054057;28;19936;-63
2022/03/18 01:27:08;;;;;;;;;;;19.20;99.90;;;;;;5048038;28;19928;-64
2022/03/18 01:29:35;;;;;;;;;;;19.20;99.90;;;;;;5053419;28;19936;-62
2022/03/18 01:32:03;;;;;;;;;;;19.20;99.90;;;;;;5049444;28;19933;-61
2022/03/18 01:34:30;;;;;;;;;;;19.10;99.90;;;;;;5051228;28;20026;-63
2022/03/18 01:36:57;;;;;;;;;;;19.10;99.90;;;;;;5048026;28;19929;-64
2022/03/18 01:39:24;;;;;;;;;;;19.10;99.90;;;;;;5050789;28;20304;-63
2022/03/18 01:41:52;;;;;;;;;;;19.10;99.90;;;;;;5051036;28;19939;-63
2022/03/18 01:44:19;;;;;;;;;;;19.10;99.90;;;;;;5050200;28;19940;-63
2022/03/18 01:46:47;;;;;;;;;;;19.10;99.90;;;;;;5051331;28;19939;-63
2022/03/18 01:49:14;;;;;;;;;;;19.10;99.90;;;;;;5052690;28;20407;-63
2022/03/18 01:51:42;;;;;;;;;;;19.10;99.90;;;;;;5065293;28;19936;-67
2022/03/18 01:56:55;;;;;;;;;;;19.10;99.90;;;;;;5047863;28;19952;-64
2022/03/18 01:59:22;;;;;;;;;;;19.10;99.90;;;;;;5035776;28;19933;-64
2022/03/18 02:01:50;;;;;;;;;;;19.10;99.90;;;;;;5035750;28;19929;-66
2022/03/18 02:04:17;;;;;;;;;;;19.10;99.90;;;;;;5051939;28;19928;-65
2022/03/18 02:06:46;;;;;;;;;;;19.00;99.90;;;;;;5049664;28;20518;-65
2022/03/18 02:09:15;;;;;;;;;;;19.00;99.90;;;;;;5048526;28;20186;-63
2022/03/18 02:11:43;;;;;;;;;;;19.00;99.90;;;;;;5050801;28;20024;-63
2022/03/18 02:14:10;;;;;;;;;;;19.00;99.90;;;;;;5050115;28;19925;-65
2022/03/18 02:16:39;;;;;;;;;;;19.00;99.90;;;;;;5049772;28;19944;-63
2022/03/18 02:19:07;;;;;;;;;;;19.00;99.90;;;;;;5048611;28;19932;-61
2022/03/18 02:21:38;;;;;;;;;;;19.00;99.90;;;;;;5052605;28;19932;-63
2022/03/18 02:24:05;;;;;;;;;;;19.00;99.90;;;;;;5053079;28;20280;-62
2022/03/18 02:26:33;;;;;;;;;;;19.00;99.90;;;;;;5047322;28;19940;-63
2022/03/18 02:29:01;;;;;;;;;;;19.00;99.90;;;;;;5049935;28;19929;-62
2022/03/18 02:31:29;;;;;;;;;;;19.00;99.90;;;;;;5046176;28;19925;-64
2022/03/18 02:33:57;;;;;;;;;;;19.00;99.90;;;;;;5049605;28;19929;-63
2022/03/18 02:36:24;;;;;;;;;;;19.00;99.90;;;;;;5050684;28;19924;-65
2022/03/18 02:38:51;;;;;;;;;;;18.90;99.90;;;;;;5049241;28;19932;-63
2022/03/18 02:41:18;;;;;;;;;;;18.90;99.90;;;;;;5047962;28;19932;-64
2022/03/18 02:43:47;;;;;;;;;;;18.90;99.90;;;;;;5042722;28;20381;-62
2022/03/18 02:46:15;;;;;;;;;;;18.90;99.90;;;;;;5054860;28;19928;-64
2022/03/18 02:48:42;;;;;;;;;;;19.00;99.90;;;;;;5049609;28;19928;-63
2022/03/18 02:51:09;;;;;;;;;;;19.00;99.90;;;;;;5053636;28;19936;-62
2022/03/18 02:53:36;;;;;;;;;;;19.00;99.90;;;;;;5053365;28;19948;-65
2022/03/18 02:56:04;;;;;;;;;;;18.90;99.90;;;;;;5077198;28;19929;-64
2022/03/18 02:58:32;;;;;;;;;;;18.90;99.90;;;;;;5055689;28;19935;-62
2022/03/18 03:00:59;;;;;;;;;;;18.90;99.90;;;;;;5049715;28;19935;-63
2022/03/18 03:03:27;;;;;;;;;;;18.90;99.90;;;;;;5044839;28;19935;-61
2022/03/18 03:08:40;;;;;;;;;;;18.90;99.90;;;;;;5045903;28;19928;-61
2022/03/18 03:11:07;;;;;;;;;;;18.80;99.90;;;;;;5049388;28;19929;-62
2022/03/18 03:13:34;;;;;;;;;;;18.90;99.90;;;;;;5043721;28;20231;-62
2022/03/18 03:16:04;;;;;;;;;;;18.80;99.90;;;;;;5040777;28;19925;-62
2022/03/18 03:18:32;;;;;;;;;;;18.80;99.90;;;;;;5044749;28;19935;-61
2022/03/18 03:20:59;;;;;;;;;;;18.70;99.90;;;;;;5079421;28;20669;-61
2022/03/18 03:23:26;;;;;;;;;;;18.80;99.90;;;;;;5048241;28;20408;-60
2022/03/18 03:25:54;;;;;;;;;;;18.70;99.90;;;;;;5039644;28;20432;-60
2022/03/18 03:28:21;;;;;;;;;;;18.60;99.90;;;;;;5046898;28;19940;-61
2022/03/18 03:30:48;;;;;;;;;;;18.60;99.90;;;;;;5045104;28;19932;-60
2022/03/18 03:33:16;;;;;;;;;;;18.60;99.90;;;;;;5044993;28;20304;-61
2022/03/18 03:35:43;;;;;;;;;;;18.60;99.90;;;;;;5041787;28;19948;-61
2022/03/18 03:38:13;;;;;;;;;;;18.70;99.90;;;;;;5044475;28;20308;-61
2022/03/18 03:40:40;;;;;;;;;;;18.70;99.90;;;;;;5046442;28;19925;-62
2022/03/18 03:43:08;;;;;;;;;;;18.70;99.90;;;;;;5047040;28;19936;-61
2022/03/18 03:45:36;;;;;;;;;;;18.70;99.90;;;;;;5042013;28;20430;-60
2022/03/18 03:48:04;;;;;;;;;;;18.70;99.90;;;;;;5048184;28;19932;-60
2022/03/18 03:50:31;;;;;;;;;;;18.70;99.90;;;;;;5046763;28;19925;-60
2022/03/18 03:52:58;;;;;;;;;;;18.70;99.90;;;;;;5035642;28;20400;-60
2022/03/18 03:55:25;;;;;;;;;;;18.70;99.90;;;;;;5029794;28;19935;-60
2022/03/18 03:57:53;;;;;;;;;;;18.70;99.90;;;;;;5042130;28;19952;-62
2022/03/18 04:00:20;;;;;;;;;;;18.70;99.90;;;;;;5046511;28;19936;-61
2022/03/18 04:02:47;;;;;;;;;;;18.70;99.90;;;;;;5038729;28;20289;-61
2022/03/18 04:05:15;;;;;;;;;;;18.70;99.90;;;;;;5046061;28;19936;-59
2022/03/18 04:07:44;;;;;;;;;;;18.70;99.90;;;;;;5047138;28;19935;-61
2022/03/18 04:10:13;;;;;;;;;;;18.70;99.90;;;;;;5046099;28;19936;-60
2022/03/18 04:12:42;;;;;;;;;;;18.70;99.90;;;;;;5040956;28;19929;-61
2022/03/18 04:15:10;;;;;;;;;;;18.70;99.90;;;;;;5039716;28;20368;-60
2022/03/18 04:17:37;;;;;;;;;;;18.70;99.90;;;;;;5045024;28;19932;-60
2022/03/18 04:20:05;;;;;;;;;;;18.70;99.90;;;;;;5044857;28;19928;-60
2022/03/18 04:22:32;;;;;;;;;;;18.70;99.90;;;;;;5046372;28;19936;-60
2022/03/18 04:24:59;;;;;;;;;;;18.70;99.90;;;;;;5044723;28;19936;-60
2022/03/18 04:27:26;;;;;;;;;;;18.70;99.90;;;;;;5048468;28;19935;-58
2022/03/18 04:29:54;;;;;;;;;;;18.70;99.90;;;;;;5042885;28;20024;-61
2022/03/18 04:32:21;;;;;;;;;;;18.70;99.90;;;;;;5041153;28;20403;-59
2022/03/18 04:34:48;;;;;;;;;;;18.70;99.90;;;;;;5066997;28;19929;-61
2022/03/18 04:37:15;;;;;;;;;;;18.70;99.90;;;;;;5044593;28;19937;-61
2022/03/18 04:39:42;;;;;;;;;;;18.70;99.90;;;;;;5042404;28;19936;-59
2022/03/18 04:42:10;;;;;;;;;;;18.60;99.90;;;;;;5043987;28;20388;-60
2022/03/18 04:44:37;;;;;;;;;;;18.60;99.90;;;;;;5040228;28;20424;-60
2022/03/18 04:47:04;;;;;;;;;;;18.60;99.90;;;;;;5044982;28;19929;-62
2022/03/18 04:49:31;;;;;;;;;;;18.60;99.90;;;;;;5045316;28;20403;-61
2022/03/18 04:51:58;;;;;;;;;;;18.60;99.90;;;;;;5047464;28;19940;-61
2022/03/18 04:54:25;;;;;;;;;;;18.60;99.90;;;;;;5046308;28;20218;-60
2022/03/18 04:59:40;;;;;;;;;;;18.70;99.90;;;;;;5046863;28;19936;-65
2022/03/18 05:02:12;;;;;;;;;;;18.90;99.90;;;;;;5069162;28;19936;-62
2022/03/18 05:04:41;;;;;;;;;;;19.10;99.90;;;;;;5046448;28;20285;-62
2022/03/18 05:07:09;;;;;;;;;;;19.20;99.90;;;;;;5029881;28;19929;-66
2022/03/18 05:09:36;;;;;;;;;;;19.40;99.90;;;;;;5042034;28;19937;-64
2022/03/18 05:12:03;;;;;;;;;;;19.50;99.90;;;;;;5043267;28;19935;-68
2022/03/18 05:14:32;;;;;;;;;;;19.60;99.90;;;;;;5038587;28;20407;-64
2022/03/18 05:16:59;;;;;;;;;;;19.80;99.90;;;;;;5038665;28;19941;-64
2022/03/18 05:19:26;;;;;;;;;;;19.90;99.90;;;;;;5029729;28;19929;-63
2022/03/18 05:21:55;;;;;;;;;;;20.00;99.90;;;;;;5041600;28;19928;-65
2022/03/18 05:24:22;;;;;;;;;;;20.10;99.90;;;;;;5040531;28;19925;-66
2022/03/18 05:26:49;;;;;;;;;;;20.30;99.90;;;;;;5044230;28;19929;-64
2022/03/18 05:29:16;;;;;;;;;;;20.50;99.90;;;;;;5042324;28;19929;-65
2022/03/18 05:31:46;;;;;;;;;;;20.60;99.90;;;;;;5042895;28;19950;-65
2022/03/18 05:34:13;;;;;;;;;;;20.80;99.90;;;;;;5045521;28;19928;-65
2022/03/18 05:36:40;;;;;;;;;;;21.00;99.90;;;;;;5046934;28;19933;-63
2022/03/18 05:39:08;;;;;;;;;;;21.20;99.90;;;;;;5043744;28;20312;-66
2022/03/18 05:41:35;;;;;;;;;;;21.40;99.90;;;;;;5041554;28;19929;-64
2022/03/18 05:44:03;;;;;;;;;;;21.60;99.90;;;;;;5044496;28;20340;-66
2022/03/18 05:46:36;;;;;;;;;;;21.70;99.90;;;;;;5047196;28;19929;-66
2022/03/18 05:49:04;;;;;;;;;;;21.80;99.90;;;;;;5037682;28;20438;-64
2022/03/18 05:51:31;;;;;;;;;;;21.80;99.90;;;;;;5047037;28;19924;-68
2022/03/18 05:53:58;;;;;;;;;;;21.90;99.90;;;;;;5036851;28;19929;-64
2022/03/18 05:59:11;;;;;;;;;;;21.90;99.90;;;;;;5042966;28;19933;-63
2022/03/18 06:01:39;;;;;;;;;;;22.00;99.90;;;;;;5040174;28;19963;-67
2022/03/18 06:04:10;;;;;;;;;;;22.00;99.90;;;;;;5047817;28;19929;-72
2022/03/18 06:06:38;;;;;;;;;;;21.90;99.90;;;;;;5058962;28;19929;-66
2022/03/18 06:11:56;;;;;;;;;;;21.90;99.90;;;;;;5041971;28;19936;-63
2022/03/18 06:14:27;;;;;;;;;;;21.80;99.90;;;;;;5051407;28;19936;-68
2022/03/18 06:17:04;;;;;;;;;;;21.70;99.90;;;;;;5050985;28;19936;-65
2022/03/18 06:19:32;;;;;;;;;;;21.70;99.90;;;;;;5040773;28;19932;-64
2022/03/18 06:21:59;;;;;;;;;;;21.60;99.90;;;;;;5076098;28;20408;-64
2022/03/18 06:24:26;;;;;;;;;;;21.60;99.90;;;;;;5041619;28;19935;-64
2022/03/18 06:26:54;;;;;;;;;;;21.60;99.90;;;;;;5045771;28;20415;-65
2022/03/18 06:29:21;;;;;;;;;;;21.60;99.90;;;;;;5039848;28;19933;-67
2022/03/18 06:31:49;;;;;;;;;;;21.60;99.90;;;;;;5041984;28;20423;-66
2022/03/18 06:34:17;;;;;;;;;;;21.60;99.90;;;;;;5042781;28;19933;-66
2022/03/18 06:36:44;;;;;;;;;;;21.50;99.90;;;;;;5041722;28;19939;-63
2022/03/18 06:39:12;;;;;;;;;;;21.50;99.90;;;;;;5043032;28;19937;-66
2022/03/18 06:41:39;;;;;;;;;;;21.50;99.90;;;;;;5044068;28;20298;-64
2022/03/18 06:44:08;;;;;;;;;;;21.40;99.90;;;;;;5042320;28;19940;-66
2022/03/18 06:46:38;;;;;;;;;;;21.40;99.90;;;;;;5041718;28;19929;-66
2022/03/18 06:49:05;;;;;;;;;;;21.30;99.90;;;;;;5041800;28;19929;-65
2022/03/18 06:51:33;;;;;;;;;;;21.30;99.90;;;;;;5043488;28;19936;-66
2022/03/18 06:54:00;;;;;;;;;;;21.20;99.90;;;;;;5039573;28;19940;-66
2022/03/18 06:56:28;;;;;;;;;;;21.20;99.90;;;;;;5043126;28;20341;-67
2022/03/18 06:58:55;;;;;;;;;;;21.20;99.90;;;;;;5049575;28;19930;-70
2022/03/18 07:01:23;;;;;;;;;;;21.10;99.90;;;;;;5053969;28;19933;-64
2022/03/18 07:03:51;;;;;;;;;;;21.10;99.90;;;;;;5056481;28;19924;-67
2022/03/18 07:06:18;;;;;;;;;;;21.00;99.90;;;;;;5051823;28;19937;-67
2022/03/18 07:08:45;;;;;;;;;;;21.00;99.90;;;;;;5052917;28;20312;-67
2022/03/18 07:11:14;;;;;;;;;;;21.00;99.90;;;;;;5051300;28;20556;-65
2022/03/18 07:13:43;;;;;;;;;;;21.00;99.90;;;;;;5054052;28;19936;-67
2022/03/18 07:18:57;;;;;;;;;;;20.90;99.90;;;;;;5050017;28;20418;-68
2022/03/18 07:21:24;;;;;;;;;;;21.00;99.90;;;;;;5051126;28;19929;-66
2022/03/18 07:23:52;;;;;;;;;;;21.00;99.90;;;;;;5052949;28;19940;-64
2022/03/18 07:26:19;;;;;;;;;;;21.10;99.90;;;;;;5048210;28;19924;-66
2022/03/18 07:28:46;;;;;;;;;;;21.20;99.90;;;;;;5053627;28;19929;-65
2022/03/18 07:31:13;;;;;;;;;;;21.30;99.90;;;;;;5050382;28;19924;-65
2022/03/18 07:33:41;;;;;;;;;;;21.30;99.90;;;;;;5051906;28;19973;-69
2022/03/18 07:36:08;;;;;;;;;;;21.40;99.90;;;;;;5047579;28;19936;-66
2022/03/18 07:38:35;;;;;;;;;;;21.50;99.90;;;;;;5047390;28;20663;-65
2022/03/18 07:41:02;;;;;;;;;;;21.50;99.90;;;;;;5040110;28;20475;-64
2022/03/18 07:43:29;;;;;;;;;;;21.60;99.90;;;;;;5044203;28;20338;-64
2022/03/18 07:45:57;;;;;;;;;;;21.60;99.90;;;;;;5041477;28;19935;-67
2022/03/18 07:48:26;;;;;;;;;;;21.60;99.90;;;;;;5042180;28;19940;-65
2022/03/18 07:50:54;;;;;;;;;;;21.70;99.90;;;;;;5040779;28;20385;-69
2022/03/18 07:53:21;;;;;;;;;;;21.70;99.90;;;;;;5046747;28;20346;-65
2022/03/18 07:55:48;;;;;;;;;;;21.80;99.90;;;;;;5043755;28;20351;-66
2022/03/18 07:58:16;;;;;;;;;;;21.80;99.90;;;;;;5044444;28;19928;-65
2022/03/18 08:00:43;;;;;;;;;;;21.70;99.90;;;;;;5047569;28;20320;-66
2022/03/18 08:03:11;;;;;;;;;;;21.70;99.90;;;;;;5047561;28;20274;-65
2022/03/18 08:05:39;;;;;;;;;;;21.60;99.90;;;;;;5045811;28;19943;-67
2022/03/18 08:08:07;;;;;;;;;;;21.60;99.90;;;;;;5047994;28;19954;-66
2022/03/18 08:10:34;;;;;;;;;;;21.50;99.90;;;;;;5049785;28;19932;-70
2022/03/18 08:13:02;;;;;;;;;;;21.50;99.90;;;;;;5048378;28;19925;-68
2022/03/18 08:15:29;;;;;;;;;;;21.50;99.90;;;;;;5046763;28;19932;-63
2022/03/18 08:17:56;;;;;;;;;;;21.50;99.90;;;;;;5045690;28;21246;-66
2022/03/18 08:20:24;;;;;;;;;;;21.40;99.90;;;;;;5041475;28;19929;-64
2022/03/18 08:22:51;;;;;;;;;;;21.40;99.90;;;;;;5042406;28;19940;-64
2022/03/18 08:25:19;;;;;;;;;;;21.40;99.90;;;;;;5046294;28;19936;-65
2022/03/18 08:27:47;;;;;;;;;;;21.30;99.90;;;;;;5047987;28;20323;-64
2022/03/18 08:30:14;;;;;;;;;;;21.30;99.90;;;;;;5046428;28;19940;-66
2022/03/18 08:32:41;;;;;;;;;;;21.20;99.90;;;;;;5047471;28;19932;-69
2022/03/18 08:35:09;;;;;;;;;;;21.20;99.90;;;;;;5044188;28;19929;-68
2022/03/18 08:40:27;;;;;;;;;;;21.20;99.90;;;;;;5049900;28;19939;-67
2022/03/18 08:42:55;;;;;;;;;;;21.20;99.90;;;;;;5046501;28;19943;-65
2022/03/18 08:45:22;;;;;;;;;;;21.20;99.90;;;;;;5045822;28;19925;-66
2022/03/18 08:47:49;;;;;;;;;;;21.20;99.90;;;;;;5049222;28;19929;-64
2022/03/18 08:50:17;;;;;;;;;;;21.10;99.90;;;;;;5049492;28;19925;-64
2022/03/18 08:52:45;;;;;;;;;;;21.00;99.90;;;;;;5050399;28;19939;-66
2022/03/18 08:55:13;;;;;;;;;;;21.00;99.90;;;;;;5046076;28;19928;-69
2022/03/18 08:57:40;;;;;;;;;;;20.90;99.90;;;;;;5047117;28;19929;-67
2022/03/18 09:00:08;;;;;;;;;;;20.90;99.90;;;;;;5047740;28;19932;-66
2022/03/18 09:02:36;;;;;;;;;;;20.90;99.90;;;;;;5049700;28;20333;-64
2022/03/18 09:05:05;;;;;;;;;;;20.90;99.90;;;;;;5047454;28;20364;-60
2022/03/18 09:07:32;;;;;;;;;;;21.00;99.90;;;;;;5045534;28;19933;-65
2022/03/18 09:10:00;;;;;;;;;;;20.40;98.30;;;;;;5046488;28;20324;-61
2022/03/18 09:12:27;;;;;;;;;;;19.70;94.70;;;;;;5048118;28;20408;-65
2022/03/18 09:14:55;;;;;;;;;;;19.30;95.50;;;;;;5049601;28;19933;-70
2022/03/18 09:17:22;;;;;;;;;;;19.90;96.40;;;;;;5049663;28;20032;-66
2022/03/18 09:19:49;;;;;;;;;;;20.40;96.90;;;;;;5046623;28;19936;-63
2022/03/18 09:22:17;;;;;;;;;;;20.80;97.30;;;;;;5048363;28;19932;-66
2022/03/18 09:24:46;;;;;;;;;;;21.10;97.70;;;;;;5045827;28;20420;-65
2022/03/18 09:27:16;;;;;;;;;;;21.30;97.90;;;;;;5040784;28;20392;-68
2022/03/18 09:29:43;;;;;;;;;;;21.40;98.30;;;;;;5042387;28;19952;-67
2022/03/18 09:32:11;;;;;;;;;;;21.60;98.60;;;;;;5045532;28;20403;-70
2022/03/18 09:34:38;;;;;;;;;;;21.50;99.00;;;;;;5043980;28;20323;-70
2022/03/18 09:37:05;;;;;;;;;;;21.60;99.20;;;;;;5045326;28;20399;-64
2022/03/18 09:39:33;;;;;;;;;;;21.70;99.40;;;;;;5046641;28;19928;-65
2022/03/18 09:42:03;;;;;;;;;;;21.70;99.50;;;;;;5054435;28;19961;-67
2022/03/18 09:44:32;;;;;;;;;;;21.70;99.60;;;;;;5060485;28;19939;-68
2022/03/18 09:47:00;;;;;;;;;;;21.70;99.90;;;;;;5057801;28;19936;-63
2022/03/18 09:49:28;;;;;;;;;;;21.70;99.90;;;;;;5052949;28;19940;-64
2022/03/18 09:51:56;;;;;;;;;;;21.70;99.90;;;;;;5056732;28;19929;-61
2022/03/18 09:54:26;;;;;;;;;;;21.70;99.90;;;;;;5054203;28;19928;-62
2022/03/18 09:56:54;;;;;;;;;;;21.70;99.90;;;;;;5056110;28;19929;-69
2022/03/18 09:59:27;;;;;;;;;;;21.70;99.90;;;;;;5058894;28;19933;-71
2022/03/18 10:02:13;;;;;;;;;;;21.60;99.90;;;;;;5064562;28;19924;-64
2022/03/18 10:04:52;;;;;;;;;;;21.60;99.90;;;;;;5058609;28;20035;-71
2022/03/18 10:07:21;;;;;;;;;;;21.50;99.90;;;;;;5052865;28;19940;-68
2022/03/18 10:10:23;;;;;;;;;;;21.50;99.90;;;;;;5053109;28;19933;-68
2022/03/18 10:12:54;;;;;;;;;;;21.50;99.90;;;;;;5047199;28;19944;-69
2022/03/18 10:15:23;;;;;;;;;;;21.50;99.90;;;;;;5049738;28;20420;-68
2022/03/18 10:17:52;;;;;;;;;;;21.60;99.90;;;;;;5045874;28;19973;-67
2022/03/18 10:20:23;;;;;;;;;;;21.60;99.90;;;;;;5045129;28;19928;-66
2022/03/18 10:22:51;;;;;;;;;;;21.60;99.90;;;;;;5044516;28;19933;-63
2022/03/18 10:25:35;;;;;;;;;;;21.50;99.90;;;;;;5041374;28;19929;-64
2022/03/18 10:28:03;;;;;;;;;;;21.40;99.90;;;;;;5058278;28;20444;-67
2022/03/18 10:30:31;;;;;;;;;;;21.40;99.90;;;;;;5051228;28;19929;-63
2022/03/18 10:32:58;;;;;;;;;;;21.30;99.90;;;;;;5045609;28;19933;-71
2022/03/18 10:38:26;;;;;;;;;;;21.30;99.90;;;;;;5046939;28;20043;-70
2022/03/18 10:40:54;;;;;;;;;;;21.20;99.90;;;;;;5042796;28;19929;-66
2022/03/18 10:43:22;;;;;;;;;;;21.20;99.90;;;;;;5049297;28;19944;-64
2022/03/18 10:46:05;;;;;;;;;;;21.10;99.90;;;;;;5045868;28;19933;-63
2022/03/18 10:48:32;;;;;;;;;;;21.10;99.90;;;;;;5049822;28;19929;-65
2022/03/18 10:51:00;;;;;;;;;;;21.10;99.90;;;;;;5047579;28;19940;-64
2022/03/18 10:53:30;;;;;;;;;;;21.10;99.90;;;;;;5047010;28;19952;-63
2022/03/18 10:56:01;;;;;;;;;;;21.10;99.90;;;;;;5050350;28;19928;-68
2022/03/18 10:58:31;;;;;;;;;;;21.00;99.90;;;;;;5046887;28;19932;-70
2022/03/18 11:01:00;;;;;;;;;;;21.10;99.90;;;;;;5048243;28;19940;-68
2022/03/18 11:03:28;;;;;;;;;;;21.20;99.90;;;;;;5046124;28;19933;-67
2022/03/18 11:05:58;;;;;;;;;;;21.20;99.90;;;;;;5047860;28;19940;-66
2022/03/18 11:08:27;;;;;;;;;;;21.40;99.90;;;;;;5048139;28;19929;-67
2022/03/18 11:11:15;;;;;;;;;;;21.40;99.90;;;;;;5047999;28;20385;-69
2022/03/18 11:14:01;;;;;;;;;;;21.60;99.90;;;;;;5049102;28;19924;-65
2022/03/18 11:16:30;;;;;;;;;;;21.70;99.90;;;;;;5046174;28;19935;-67
2022/03/18 11:18:58;;;;;;;;;;;21.80;99.90;;;;;;5051554;28;19936;-67
2022/03/18 11:21:35;;;;;;;;;;;21.80;99.90;;;;;;5045361;28;20391;-68
2022/03/18 11:24:04;;;;;;;;;;;21.90;99.90;;;;;;5041172;28;19928;-71
2022/03/18 11:26:34;;;;;;;;;;;21.90;99.90;;;;;;5051823;28;19936;-64
2022/03/18 11:29:09;;;;;;;;;;;21.90;99.90;;;;;;5050789;28;20411;-65
2022/03/18 11:31:36;;;;;;;;;;;21.90;99.90;;;;;;5047486;28;19925;-68
2022/03/18 11:34:11;;;;;;;;;;;21.90;99.90;;;;;;5043863;28;19929;-67
2022/03/18 11:36:44;;;;;;;;;;;21.90;99.90;;;;;;5044956;28;19932;-67
2022/03/18 11:39:19;;;;;;;;;;;21.80;99.90;;;;;;5048985;28;19936;-64
2022/03/18 11:41:46;;;;;;;;;;;21.80;99.90;;;;;;5045185;28;19933;-67
2022/03/18 11:44:32;;;;;;;;;;;21.80;99.90;;;;;;5049515;28;19929;-66
2022/03/18 11:47:18;;;;;;;;;;;21.80;99.90;;;;;;5043265;28;19940;-66
2022/03/18 11:49:46;;;;;;;;;;;21.80;99.90;;;;;;5031370;28;19929;-66
2022/03/18 11:52:14;;;;;;;;;;;21.80;99.90;;;;;;5048337;28;19935;-66
2022/03/18 11:54:54;;;;;;;;;;;21.70;99.90;;;;;;5055678;28;19936;-63
2022/03/18 11:57:33;;;;;;;;;;;21.80;99.90;;;;;;5046468;28;19928;-66
2022/03/18 12:00:05;;;;;;;;;;;21.70;99.90;;;;;;5046595;28;19954;-65
2022/03/18 12:02:36;;;;;;;;;;;21.80;99.90;;;;;;5047776;28;19929;-63
2022/03/18 12:05:05;;;;;;;;;;;21.80;99.90;;;;;;5048917;28;19925;-65
2022/03/18 12:07:54;;;;;;;;;;;21.70;99.90;;;;;;5048319;28;19935;-65
2022/03/18 12:10:33;;;;;;;;;;;21.70;99.90;;;;;;5037357;28;19925;-67
2022/03/18 12:13:05;;;;;;;;;;;21.60;99.90;;;;;;5050100;28;19939;-66
2022/03/18 12:15:41;;;;;;;;;;;21.60;99.90;;;;;;5052773;28;20012;-63
2022/03/18 12:18:08;;;;;;;;;;;21.10;98.40;;;;;;5049647;28;19960;-65
2022/03/18 12:20:56;;;;;;;;;;;20.60;95.40;;;;;;5042187;28;19929;-65
2022/03/18 12:23:23;;;;;;;;;;;20.20;95.10;;;;;;5046720;28;19965;-64
2022/03/18 12:26:03;;;;;;;;;;;20.00;93.80;;;;;;5044896;28;20300;-64
2022/03/18 12:28:43;;;;;;;;;;;19.80;93.10;;;;;;5050579;28;19925;-65
2022/03/18 12:31:19;;;;;;;;;;;19.70;92.80;;;;;;5049776;28;19940;-65
2022/03/18 12:33:46;;;;;;;;;;;19.70;92.00;;;;;;5054609;28;19929;-63
2022/03/18 12:36:13;;;;;;;;;;;19.80;91.10;;;;;;5051511;28;19929;-63
2022/03/18 12:38:46;;;;;;;;;;;19.90;90.50;;;;;;5048447;28;19936;-65
2022/03/18 12:41:17;;;;;;;;;;;19.90;90.20;;;;;;5051934;28;20431;-64
2022/03/18 12:43:45;;;;;;;;;;;19.90;90.10;;;;;;5073472;28;19928;-67
2022/03/18 12:46:14;;;;;;;;;;;19.90;90.40;;;;;;5048004;28;19947;-63
2022/03/18 12:48:46;;;;;;;;;;;20.00;89.30;;;;;;5042576;28;19928;-64
2022/03/18 12:51:13;;;;;;;;;;;19.90;88.00;;;;;;5038763;28;19936;-67
2022/03/18 12:53:46;;;;;;;;;;;20.10;88.80;;;;;;5044372;28;19936;-66
2022/03/18 12:56:28;;;;;;;;;;;20.60;89.60;;;;;;5045488;28;19929;-66
2022/03/18 12:58:58;;;;;;;;;;;21.00;90.00;;;;;;5041334;28;20034;-67
2022/03/18 13:01:54;;;;;;;;;;;21.30;90.80;;;;;;5042377;28;19929;-66
2022/03/18 13:04:22;;;;;;;;;;;21.50;91.60;;;;;;5040212;28;19925;-66
2022/03/18 13:06:51;;;;;;;;;;;21.60;92.20;;;;;;5038438;28;20310;-66
2022/03/18 13:09:18;;;;;;;;;;;21.80;92.70;;;;;;5042575;28;19929;-66
2022/03/18 13:11:45;;;;;;;;;;;21.80;93.10;;;;;;5047768;28;19944;-68
2022/03/18 13:14:13;;;;;;;;;;;21.90;93.40;;;;;;5041916;28;19929;-69
2022/03/18 13:16:43;;;;;;;;;;;22.00;93.70;;;;;;5045884;28;19959;-66
2022/03/18 13:19:11;;;;;;;;;;;22.00;94.00;;;;;;5045424;28;19936;-69
2022/03/18 13:21:45;;;;;;;;;;;22.00;94.30;;;;;;5043767;28;19929;-66
2022/03/18 13:24:13;;;;;;;;;;;22.00;94.50;;;;;;5047528;28;19929;-64
2022/03/18 13:26:42;;;;;;;;;;;22.00;94.80;;;;;;5045540;28;19933;-66
2022/03/18 13:29:09;;;;;;;;;;;22.00;95.00;;;;;;5041548;28;19925;-69
2022/03/18 13:34:30;;;;;;;;;;;22.00;95.30;;;;;;5056876;28;19943;-66
2022/03/18 13:37:14;;;;;;;;;;;22.00;95.60;;;;;;5045029;28;19955;-69
2022/03/18 13:39:42;;;;;;;;;;;22.00;95.80;;;;;;5067953;28;19961;-64
2022/03/18 13:42:19;;;;;;;;;;;22.10;96.00;;;;;;5045403;28;20176;-67
2022/03/18 13:45:08;;;;;;;;;;;22.10;96.10;;;;;;5044612;28;19989;-66
2022/03/18 13:47:45;;;;;;;;;;;22.00;96.30;;;;;;5045803;28;19940;-67
2022/03/18 13:50:14;;;;;;;;;;;22.10;96.40;;;;;;5053474;28;19944;-67
2022/03/18 13:52:41;;;;;;;;;;;22.10;96.50;;;;;;5048207;28;19933;-66
2022/03/18 13:55:12;;;;;;;;;;;22.00;95.80;;;;;;5040693;28;19940;-67
2022/03/18 13:57:46;;;;;;;;;;;21.90;94.00;;;;;;5047762;28;19925;-68
2022/03/18 14:00:24;;;;;;;;;;;21.90;92.90;;;;;;5047374;28;19936;-65
2022/03/18 14:03:20;;;;;;;;;;;22.00;91.30;;;;;;5054607;28;19935;-69
2022/03/18 14:05:56;;;;;;;;;;;22.00;90.20;;;;;;5028669;28;19940;-66
2022/03/18 14:08:28;;;;;;;;;;;21.90;88.70;;;;;;5054624;28;19929;-68
2022/03/18 14:12:08;;;;;;;;;;;21.90;86.30;;;;;;5054227;28;19929;-65
2022/03/18 14:13:49;;;;;;;;;;;21.80;85.30;;;;;;5045696;28;20419;-65
2022/03/18 14:16:16;;;;;;;;;;;21.60;83.30;;;;;;5051918;28;19995;-65
2022/03/18 14:18:44;;;;;;;;;;;21.60;81.70;;;;;;5049734;28;19936;-66
2022/03/18 14:21:11;;;;;;;;;;;21.50;81.10;;;;;;5047701;28;19929;-65
2022/03/18 14:23:44;;;;;;;;;;;21.50;82.70;;;;;;5052317;28;19933;-65
2022/03/18 14:26:11;;;;;;;;;;;21.60;84.50;;;;;;5066259;28;19952;-66
2022/03/18 14:28:39;;;;;;;;;;;21.70;86.20;;;;;;5057495;28;19929;-68
2022/03/18 14:31:07;;;;;;;;;;;21.90;88.10;;;;;;5053234;28;20292;-69
2022/03/18 14:33:37;;;;;;;;;;;21.90;89.20;;;;;;5060052;28;19929;-68
2022/03/18 14:36:05;;;;;;;;;;;22.00;90.10;;;;;;5055213;28;19936;-67
2022/03/18 14:38:32;;;;;;;;;;;22.00;90.60;;;;;;5050629;28;19929;-65
2022/03/18 14:41:01;;;;;;;;;;;22.10;90.90;;;;;;5081734;28;20343;-66
2022/03/18 14:43:30;;;;;;;;;;;22.20;91.20;;;;;;5051313;28;19938;-64
2022/03/18 14:45:58;;;;;;;;;;;22.30;91.40;;;;;;5049890;28;19935;-66
2022/03/18 14:48:25;;;;;;;;;;;22.30;91.70;;;;;;5047583;28;19929;-64
2022/03/18 14:50:58;;;;;;;;;;;22.30;92.00;;;;;;5057972;28;20428;-66
2022/03/18 14:53:27;;;;;;;;;;;22.30;92.30;;;;;;5053108;28;19939;-68
2022/03/18 14:58:40;;;;;;;;;;;22.30;92.70;;;;;;5066264;28;20003;-69
2022/03/18 15:01:07;;;;;;;;;;;22.20;92.90;;;;;;5056580;28;19929;-65